Latest Coastal Weather Observations for Truscott

IDD60701

Issued at 8:01 am CST Friday 15 December 2017 (issued every 10 minutes, with the page automatically refreshed every 10 minutes)

About coastal observations | Map of coastal stations | Coastal observations for NT | Marine services | Other Formats
Station Details ID: 001020 Name: TRUSCOTT Lat: -14.09 Lon: 126.39 Height: 51.0 m
Data from the previous 72 hours. | See also: Recent months at Truscott
Date/Time
CST
Temp
°C
Wind Pressure Rain since
9am
mm
Weather Cloud Vis
km
Sea
Height
m
Swell
Dir  Spd
kts
Gust
kts
hPa Trend Height
m
Period
s
Dir
15/08:00am 23.2 ESE 8 13 1010.0 - 38.4 - Partly cloudy 6 - - - -
15/07:30am 23.3 E 16 30 1009.4 - 25.2 Showers Mostly cloudy 1 - - - -
15/07:16am 23.5 ENE 16 29 1008.6 - 6.6 - Partly cloudy 2 - - - -
15/07:14am 23.7 ENE 15 29 1008.4 - 5.0 - Partly cloudy 2 - - - -
15/07:02am 24.3 ENE 12 23 1008.1 - 0.4 - Partly cloudy 5 - - - -
15/07:00am 24.5 E 13 23 1008.1 - 0.0 - Partly cloudy 7 - - - -
15/06:56am 25.2 E 10 23 1008.1 - 0.0 - Partly cloudy 10 - - - -
15/06:30am 30.2 W 9 14 1006.3 - 0.0 - Partly cloudy 10 - - - -
15/06:00am 30.1 W 8 12 1005.9 - 0.0 - Partly cloudy 10 - - - -
15/05:30am 30.1 W 8 13 1005.6 - 0.0 - Partly cloudy 10 - - - -
15/05:00am 30.1 W 8 13 1005.3 - 0.0 - Partly cloudy 10 - - - -
15/04:30am 30.1 W 7 9 1005.5 - 0.0 - Mostly cloudy 10 - - - -
15/04:00am 29.9 W 8 12 1005.3 - 0.0 - - 10 - - - -
15/03:30am 30.0 W 7 11 1005.4 - 0.0 - - 10 - - - -
15/03:00am 30.0 W 9 13 1005.3 - 0.0 - Partly cloudy 10 - - - -
15/02:30am 30.2 W 7 11 1005.5 - 0.0 - Partly cloudy 10 - - - -
15/02:00am 30.2 WNW 9 14 1005.1 - 0.0 - Partly cloudy 10 - - - -
15/01:30am 30.2 WNW 8 13 1005.6 - 0.0 - Partly cloudy 10 - - - -
15/01:00am 30.3 W 9 15 1006.2 - 0.0 - Partly cloudy 10 - - - -
15/12:30am 30.4 W 9 13 1006.5 - 0.0 - Partly cloudy 10 - - - -
15/12:00am 30.4 W 11 15 1006.6 - 0.0 - Partly cloudy 10 - - - -
 
Date/Time
CST
Temp
°C
Wind Pressure Rain since
9am
mm
Weather Cloud Vis
km
Sea
Height
m
Swell
Dir  Spd
kts
Gust
kts
hPa Trend Height
m
Period
s
Dir
14/11:30pm 30.5 W 10 15 1006.6 - 0.0 - Partly cloudy 10 - - - -
14/11:00pm 30.4 W 11 16 1006.3 - 0.0 - Partly cloudy 10 - - - -
14/10:30pm 30.4 W 11 17 1006.1 - 0.0 - Mostly cloudy 10 - - - -
14/10:00pm 30.5 W 11 16 1005.8 - 0.0 - Partly cloudy 10 - - - -
14/09:30pm 30.5 W 10 15 1005.8 - 0.0 - Partly cloudy 10 - - - -
14/09:00pm 30.6 W 11 17 1005.5 - 0.0 - Partly cloudy 10 - - - -
14/08:30pm 30.7 W 11 16 1005.2 - 0.0 - - 10 - - - -
14/08:00pm 30.8 W 11 17 1004.8 - 0.0 - Partly cloudy 10 - - - -
14/07:30pm 31.0 W 9 13 1004.5 - 0.0 - Mostly clear 10 - - - -
14/07:00pm 31.3 W 11 17 1004.4 - 0.0 - - 10 - - - -
14/06:30pm 31.7 W 12 17 1004.2 - 0.0 - - 10 - - - -
14/06:00pm 32.2 W 11 17 1004.2 - 0.0 - Partly cloudy 10 - - - -
14/05:30pm 32.5 W 11 18 1003.9 - 0.0 - Partly cloudy 10 - - - -
14/05:00pm 32.9 W 13 18 1003.9 - 0.0 - Partly cloudy 10 - - - -
14/04:30pm 33.1 W 14 21 1003.6 - 0.0 - - 10 - - - -
14/04:00pm 33.9 W 13 19 1003.7 - 0.0 - Partly cloudy 10 - - - -
14/03:30pm 33.9 W 13 20 1004.0 - 0.0 - Partly cloudy 10 - - - -
14/03:00pm 33.6 W 13 19 1004.5 - 0.0 - Partly cloudy 10 - - - -
14/02:30pm 33.6 WSW 14 24 1004.8 - 0.0 - - 10 - - - -
14/02:00pm 33.8 WSW 13 19 1005.2 - 0.0 - - 10 - - - -
14/01:30pm 33.8 WSW 12 19 1006.0 - 0.0 - Partly cloudy 10 - - - -
14/01:00pm 33.7 W 13 17 1006.5 - 0.0 - Partly cloudy 10 - - - -
14/12:30pm 33.4 WNW 9 13 1007.0 - 0.0 - Partly cloudy 10 - - - -
14/12:00pm 32.6 WNW 9 14 1007.6 - 0.0 - Partly cloudy 10 - - - -
14/11:30am 32.5 WNW 8 12 1008.1 - 0.0 - Partly cloudy 10 - - - -
14/11:00am 32.3 WNW 8 12 1008.2 - 0.0 - Partly cloudy 10 - - - -
14/10:30am 32.0 NW 7 11 1008.4 - 6.4 - Mostly cloudy 10 - - - -
14/10:00am 31.4 NW 7 11 1008.9 - 6.4 - Partly cloudy 10 - - - -
14/09:30am 31.6 WNW 8 12 1008.9 - 6.4 - - 10 - - - -
14/09:00am 31.0 NW 6 9 1009.1 - 6.4 - - 10 - - - -
14/08:30am 30.6 WNW 4 7 1008.6 - 6.4 - - 10 - - - -
14/08:00am 29.9 WNW 1 4 1008.4 - 6.4 - - 10 - - - -
14/07:30am 28.6 CALM 0 0 1008.0 - 6.4 - Partly cloudy 10 - - - -
14/07:00am 27.0 CALM 0 0 1008.1 - 6.4 - - 10 - - - -
14/06:30am 26.8 CALM 0 0 1007.3 - 6.4 - - 10 - - - -
14/06:00am 26.9 SSE 3 3 1006.9 - 6.4 - - 10 - - - -
14/05:30am 27.0 SE 3 5 1006.9 - 6.4 - - 10 - - - -
14/05:00am 27.1 SSE 2 4 1006.6 - 6.4 - - 10 - - - -
14/04:30am 26.8 E 2 4 1006.7 - 6.4 - Cloudy 10 - - - -
14/04:00am 26.5 E 5 7 1006.6 - 6.4 - Partly cloudy 10 - - - -
14/03:30am 26.7 SE 3 5 1005.6 - 6.4 - - 10 - - - -
14/03:00am 27.8 SW 4 6 1005.4 - 6.4 - Partly cloudy 10 - - - -
14/02:30am 27.3 CALM 0 0 1005.4 - 6.4 - Partly cloudy 10 - - - -
14/02:00am 26.9 CALM 0 0 1005.4 - 6.4 - Partly cloudy 10 - - - -
14/01:30am 26.7 CALM 0 0 1005.8 - 6.4 - - 10 - - - -
14/01:00am 26.9 ENE 2 4 1006.3 - 6.4 - - 10 - - - -
14/12:30am 26.8 E 3 4 1006.8 - 6.4 - - 10 - - - -
14/12:00am 26.7 ESE 3 4 1007.0 - 6.4 - - 10 - - - -
 
Date/Time
CST
Temp
°C
Wind Pressure Rain since
9am
mm
Weather Cloud Vis
km
Sea
Height
m
Swell
Dir  Spd
kts
Gust
kts
hPa Trend Height
m
Period
s
Dir
13/11:30pm 27.1 ESE 3 4 1007.1 - 6.4 - - 10 - - - -
13/11:00pm 27.8 CALM 0 0 1007.0 - 6.4 - Partly cloudy 10 - - - -
13/10:30pm 28.3 WSW 4 5 1007.2 - 6.4 - Cloudy 10 - - - -
13/10:00pm 28.2 WSW 4 6 1006.6 - 6.4 - - 10 - - - -
13/09:30pm 27.5 WNW 4 6 1006.5 - 6.4 - - 10 - - - -
13/09:00pm 26.9 WSW 6 9 1006.0 - 6.4 - - 10 - - - -
13/08:30pm 26.6 W 5 7 1005.3 - 6.4 - - 10 - - - -
13/08:00pm 26.4 SSW 9 12 1005.3 - 6.4 - - 10 - - - -
13/07:30pm 25.6 SW 7 9 1005.4 - 6.4 Recent precip. Mostly cloudy 10 - - - -
13/07:00pm 25.1 SSE 4 6 1005.7 - 6.4 - Partly cloudy 10 - - - -
13/06:30pm 25.2 ENE 5 7 1005.3 - 6.2 - Partly cloudy 10 - - - -
13/06:00pm 26.4 SSW 9 12 1005.4 - 6.0 - Partly cloudy 10 - - - -
13/05:30pm 26.1 SSW 14 22 1004.9 - 6.0 - - 10 - - - -
13/05:00pm 23.7 W 14 19 1004.3 - 6.0 - Partly cloudy 10 - - - -
13/04:55pm 23.8 WSW 13 19 1004.3 - 5.8 - Partly cloudy 10 - - - -
13/04:54pm 23.8 WSW 11 19 1004.5 - 5.8 - Partly cloudy 10 - - - -
13/04:33pm 23.6 SSE 17 27 1006.5 - 2.0 - Partly cloudy 5 - - - -
13/04:30pm 23.8 S 18 27 1006.4 - 0.8 Rain Cloudy 10 - - - -
13/04:26pm 24.7 S 20 28 1006.1 - 0.0 - Partly cloudy 10 - - - -
13/04:10pm 30.3 SW 12 32 1005.8 - 0.0 - Partly cloudy 10 - - - -
13/04:09pm 31.5 WSW 11 28 1005.7 - 0.0 - Partly cloudy 10 - - - -
13/04:00pm 33.0 W 9 15 1005.2 - 0.0 - Partly cloudy 10 - - - -
13/03:30pm 33.7 WNW 12 17 1005.1 - 0.0 - - 10 - - - -
13/03:00pm 34.8 WNW 13 21 1005.2 - 0.0 - - 10 - - - -
13/02:30pm 35.0 WNW 13 19 1005.3 - 0.0 - - 10 - - - -
13/02:00pm 34.7 WNW 12 18 1006.3 - 0.0 - Partly cloudy 10 - - - -
13/01:30pm 34.1 WNW 13 19 1006.9 - 0.0 - Partly cloudy 10 - - - -
13/01:00pm 35.5 WNW 10 15 1007.2 - 0.0 - Partly cloudy 10 - - - -
13/12:30pm 34.9 WNW 8 14 1007.5 - 0.0 - - 10 - - - -
13/12:00pm 34.5 WNW 8 12 1007.7 - 0.0 - - 10 - - - -
13/11:30am 34.4 WNW 10 15 1008.1 - 0.0 - - 10 - - - -
13/11:00am 33.4 W 10 16 1008.4 - 0.0 - - 10 - - - -
13/10:30am 33.2 W 9 14 1008.8 - 0.0 - - 10 - - - -
13/10:00am 32.6 W 7 11 1008.9 - 0.0 - - 10 - - - -
13/09:30am 31.7 WNW 7 10 1008.6 - 0.0 - - 10 - - - -
13/09:00am 31.7 WNW 5 8 1008.6 - 0.0 - - 10 - - - -
13/08:30am 30.9 W 4 6 1008.4 - 0.0 - - 10 - - - -
13/08:00am 30.2 SW 2 4 1008.2 - 0.0 - - 10 - - - -
13/07:30am 28.6 SSE 3 5 1008.0 - 0.0 - - 10 - - - -
13/07:00am 27.1 CALM 0 0 1007.8 - 0.0 - - 10 - - - -
13/06:30am 26.4 CALM 0 0 1007.3 - 0.0 - - 10 - - - -
13/06:00am 26.8 CALM 0 0 1006.8 - 0.0 - - 10 - - - -
13/05:30am 27.8 SSW 3 4 1006.3 - 0.0 - - 10 - - - -
13/05:00am 28.3 SW 4 5 1006.1 - 0.0 - - 10 - - - -
13/04:30am 28.5 WSW 4 5 1005.9 - 0.0 - - 10 - - - -
13/04:00am 28.3 W 3 4 1005.9 - 0.0 - - 10 - - - -
13/03:30am 28.6 WSW 5 7 1005.7 - 0.0 - - 10 - - - -
13/03:00am 28.6 WSW 5 7 1005.7 - 0.0 - - 10 - - - -
13/02:30am 28.5 W 2 4 1006.1 - 0.0 - - 10 - - - -
13/02:00am 28.3 WNW 1 3 1006.3 - 0.0 - - 10 - - - -
13/01:30am 28.3 WNW 3 4 1006.7 - 0.0 - - 10 - - - -
13/01:00am 28.5 W 3 4 1007.0 - 0.0 - - 10 - - - -
13/12:30am 27.8 NNW 3 4 1007.2 - 0.0 - - 10 - - - -
13/12:00am 27.8 N 4 5 1007.4 - 0.0 - - 10 - - - -
 
Date/Time
CST
Temp
°C
Wind Pressure Rain since
9am
mm
Weather Cloud Vis
km
Sea
Height
m
Swell
Dir  Spd
kts
Gust
kts
hPa Trend Height
m
Period
s
Dir
12/11:30pm 27.8 CALM 0 0 1007.3 - 0.0 - - 10 - - - -
12/11:00pm 28.4 S 3 5 1007.4 - 0.0 - - 10 - - - -
12/10:30pm 28.8 SSW 7 11 1007.0 - 0.0 - - 10 - - - -
12/10:00pm 28.6 SSW 6 9 1007.3 - 0.0 - - 10 - - - -
12/09:30pm 28.9 SSW 7 9 1007.3 - 0.0 - - 10 - - - -
12/09:00pm 29.9 SW 8 11 1006.9 - 0.0 - - 10 - - - -
12/08:30pm 30.7 SW 9 13 1006.4 - 0.0 - - 10 - - - -
12/08:00pm 31.8 W 8 13 1006.0 - 0.0 - - 10 - - - -
12/07:30pm 32.0 W 11 17 1006.2 - 0.0 - Cloudy 10 - - - -
12/07:00pm 32.5 W 11 16 1006.2 - 0.0 - - 10 - - - -
12/06:30pm 32.8 W 12 17 1005.7 - 0.0 - - 10 - - - -
12/06:00pm 33.2 W 12 18 1005.8 - 0.0 - - 10 - - - -
12/05:30pm 33.8 WSW 10 15 1005.4 - 0.0 - - 10 - - - -
12/05:00pm 34.3 W 11 17 1005.5 - 0.0 - - 10 - - - -
12/04:30pm 35.4 WNW 12 17 1005.6 - 0.0 - Mostly clear 10 - - - -
12/04:00pm 35.7 W 11 16 1005.0 - 0.0 - - 10 - - - -
12/03:30pm 36.5 W 10 15 1005.8 - 0.0 - - 10 - - - -
12/03:01pm 36.3 WNW 10 15 1006.2 - 0.0 - - 10 - - - -
12/03:00pm 36.4 WNW 9 14 1006.2 - 0.0 - - 10 - - - -
12/02:49pm 36.2 WNW 10 14 1006.4 - 0.0 - - 5 - - - -
12/02:30pm 36.0 W 10 13 1006.8 - 0.0 - - 10 - - - -
12/02:00pm 35.6 WNW 10 13 1007.3 - 0.0 - - 10 - - - -
12/01:30pm 36.0 WNW 10 15 1007.6 - 0.0 - - 10 - - - -
12/01:00pm 35.5 W 10 16 1008.1 - 0.0 - - 10 - - - -
12/12:30pm 36.0 WNW 9 14 1008.6 - 0.0 - - 10 - - - -
12/12:00pm 35.7 WNW 8 12 1009.0 - 0.0 - - 10 - - - -
12/11:30am 35.0 W 9 13 1009.5 - 0.0 - - 10 - - - -
12/11:00am 34.4 W 8 13 1009.9 - 0.0 - - 10 - - - -
12/10:30am 34.1 W 7 11 1010.4 - 0.0 - - 10 - - - -
12/10:00am 33.7 WSW 5 8 1010.8 - 0.0 - - 10 - - - -

Other Formats:

Comma delimited format used in spreadsheet applications
http://www.bom.gov.au/fwo/IDD60701/IDD60701.95101.axf

JavaScript Object Notation format (JSON) in row-major order
http://www.bom.gov.au/fwo/IDD60701/IDD60701.95101.json